createdAt,value
2023-03-05T00:00:03.231Z,962.09
2023-03-05T00:01:03.408Z,962.09
2023-03-05T00:02:05.262Z,962.06
2023-03-05T00:03:03.167Z,962.13
2023-03-05T00:04:03.190Z,962.10
2023-03-05T00:05:03.193Z,962.15
2023-03-05T00:06:03.196Z,962.09
2023-03-05T00:07:03.157Z,962.10
2023-03-05T00:08:03.120Z,962.09
2023-03-05T00:09:03.127Z,962.10
2023-03-05T00:10:03.123Z,962.10
2023-03-05T00:11:03.079Z,962.13
2023-03-05T00:12:06.305Z,962.07
2023-03-05T00:13:03.089Z,962.10
2023-03-05T00:14:03.049Z,962.12
2023-03-05T00:15:03.068Z,962.13
2023-03-05T00:16:03.196Z,962.05
2023-03-05T00:17:03.045Z,962.08
2023-03-05T00:18:03.028Z,962.07
2023-03-05T00:19:03.045Z,962.04
2023-03-05T00:20:03.021Z,962.04
2023-03-05T00:21:02.980Z,962.05
2023-03-05T00:22:02.987Z,962.03
2023-03-05T00:23:02.945Z,962.04
2023-03-05T00:24:02.969Z,962.04
2023-03-05T00:25:02.950Z,962.02
2023-03-05T00:26:02.971Z,962.06
2023-03-05T00:27:05.905Z,962.04
2023-03-05T00:28:02.919Z,962.04
2023-03-05T00:29:02.885Z,962.00
2023-03-05T00:30:02.877Z,962.02
2023-03-05T00:31:02.883Z,962.01
2023-03-05T00:32:03.019Z,962.00
2023-03-05T00:33:02.869Z,962.01
2023-03-05T00:34:02.859Z,962.06
2023-03-05T00:35:02.831Z,962.00
2023-03-05T00:36:02.852Z,962.04
2023-03-05T00:37:02.812Z,962.07
2023-03-05T00:38:02.840Z,962.09
2023-03-05T00:39:02.818Z,962.04
2023-03-05T00:40:02.854Z,962.07
2023-03-05T00:41:02.790Z,962.06
2023-03-05T00:42:05.759Z,962.08
2023-03-05T00:43:02.786Z,962.05
2023-03-05T00:44:02.742Z,962.10
2023-03-05T00:45:03.700Z,962.10
2023-03-05T00:46:02.761Z,962.14
2023-03-05T00:47:02.700Z,962.05
2023-03-05T00:48:02.712Z,962.05
2023-03-05T00:49:02.677Z,962.01
2023-03-05T00:50:02.693Z,962.03
2023-03-05T00:51:02.683Z,962.03
2023-03-05T00:52:02.681Z,962.01
2023-03-05T00:53:02.642Z,962.01
2023-03-05T00:54:02.653Z,961.98
2023-03-05T00:55:02.642Z,962.02
2023-03-05T00:56:02.791Z,961.97
2023-03-05T00:57:05.605Z,961.94
2023-03-05T00:58:02.604Z,961.93
2023-03-05T00:59:02.606Z,961.91
2023-03-05T01:00:02.599Z,961.90
2023-03-05T01:01:02.607Z,961.93
2023-03-05T01:02:02.671Z,961.87
2023-03-05T01:03:02.565Z,961.90
2023-03-05T01:04:02.549Z,961.91
2023-03-05T01:05:02.552Z,961.92
2023-03-05T01:06:02.521Z,961.83
2023-03-05T01:07:02.619Z,961.86
2023-03-05T01:08:02.475Z,961.87
2023-03-05T01:09:02.476Z,961.81
2023-03-05T01:10:02.480Z,961.83
2023-03-05T01:11:02.501Z,961.79
2023-03-05T01:12:05.450Z,961.70
2023-03-05T01:13:02.430Z,961.68
2023-03-05T01:14:02.438Z,961.65
2023-03-05T01:15:02.412Z,961.66
2023-03-05T01:16:02.471Z,961.59
2023-03-05T01:17:02.387Z,961.64
2023-03-05T01:18:02.353Z,961.59
2023-03-05T01:19:02.344Z,961.64
2023-03-05T01:20:02.337Z,961.63
2023-03-05T01:21:02.351Z,961.62
2023-03-05T01:22:02.385Z,961.59
2023-03-05T01:23:02.330Z,961.61
2023-03-05T01:24:02.298Z,961.60
2023-03-05T01:25:02.310Z,961.55
2023-03-05T01:26:02.312Z,961.52
2023-03-05T01:27:05.262Z,961.47
2023-03-05T01:28:02.259Z,961.49
2023-03-05T01:29:02.261Z,961.48
2023-03-05T01:30:02.237Z,961.47
2023-03-05T01:31:02.239Z,961.43
2023-03-05T01:32:02.295Z,961.49
2023-03-05T01:33:02.228Z,961.49
2023-03-05T01:34:02.180Z,961.48
2023-03-05T01:35:02.197Z,961.49
2023-03-05T01:36:02.160Z,961.47
2023-03-05T01:37:02.292Z,961.44
2023-03-05T01:38:02.144Z,961.49
2023-03-05T01:39:02.168Z,961.45
2023-03-05T01:40:02.184Z,961.39
2023-03-05T01:41:02.140Z,961.43
2023-03-05T01:42:05.124Z,961.34
2023-03-05T01:43:02.134Z,961.38
2023-03-05T01:44:02.079Z,961.35
2023-03-05T01:45:02.070Z,961.38
2023-03-05T01:46:02.079Z,961.35
2023-03-05T01:47:02.080Z,961.33
2023-03-05T01:48:02.041Z,961.31
2023-03-05T01:49:02.048Z,961.36
2023-03-05T01:50:02.046Z,961.33
2023-03-05T01:51:02.114Z,961.32
2023-03-05T01:52:02.027Z,961.32
2023-03-05T01:53:01.987Z,961.29
2023-03-05T01:54:01.996Z,961.33
2023-03-05T01:55:01.984Z,961.26
2023-03-05T01:56:01.953Z,961.26
2023-03-05T01:57:04.984Z,961.31
2023-03-05T01:58:01.948Z,961.25
2023-03-05T01:59:01.956Z,961.22
2023-03-05T02:00:01.965Z,961.22
2023-03-05T02:01:01.981Z,961.20
2023-03-05T02:02:01.897Z,961.12
2023-03-05T02:03:01.920Z,961.12
2023-03-05T02:04:01.905Z,961.09
2023-03-05T02:05:01.883Z,961.12
2023-03-05T02:06:01.840Z,961.10
2023-03-05T02:07:01.863Z,961.10
2023-03-05T02:08:01.842Z,961.08
2023-03-05T02:09:01.830Z,961.12
2023-03-05T02:10:01.839Z,961.09
2023-03-05T02:11:01.796Z,961.09
2023-03-05T02:12:04.799Z,961.11
2023-03-05T02:13:01.789Z,961.13
2023-03-05T02:14:01.800Z,961.15
2023-03-05T02:15:01.847Z,961.14
2023-03-05T02:16:01.786Z,961.10
2023-03-05T02:17:01.729Z,961.10
2023-03-05T02:18:01.736Z,961.09
2023-03-05T02:19:01.739Z,961.08
2023-03-05T02:20:01.727Z,961.05
2023-03-05T02:21:01.730Z,961.05
2023-03-05T02:22:01.708Z,961.04
2023-03-05T02:23:01.670Z,961.03
2023-03-05T02:24:01.683Z,961.06
2023-03-05T02:25:01.689Z,961.03
2023-03-05T02:26:01.680Z,960.99
2023-03-05T02:27:04.630Z,961.00
2023-03-05T02:28:01.646Z,960.99
2023-03-05T02:29:01.612Z,960.96
2023-03-05T02:30:01.621Z,960.98
2023-03-05T02:31:01.598Z,960.96
2023-03-05T02:32:01.768Z,960.95
2023-03-05T02:33:01.590Z,960.95
2023-03-05T02:34:01.563Z,960.94
2023-03-05T02:35:01.578Z,960.94
2023-03-05T02:36:01.571Z,960.97
2023-03-05T02:37:01.573Z,960.89
2023-03-05T02:38:01.514Z,960.89
2023-03-05T02:39:01.513Z,960.87
2023-03-05T02:40:01.532Z,960.89
2023-03-05T02:41:01.494Z,960.94
2023-03-05T02:42:04.519Z,960.90
2023-03-05T02:43:01.517Z,960.89
2023-03-05T02:44:01.451Z,960.88
2023-03-05T02:45:01.448Z,960.88
2023-03-05T02:46:01.561Z,960.87
2023-03-05T02:47:01.431Z,960.87
2023-03-05T02:48:01.441Z,960.88
2023-03-05T02:49:01.435Z,960.84
2023-03-05T02:50:01.408Z,960.84
2023-03-05T02:51:01.432Z,960.85
2023-03-05T02:52:01.379Z,960.79
2023-03-05T02:53:01.492Z,960.77
2023-03-05T02:54:01.393Z,960.77
2023-03-05T02:55:01.387Z,960.76
2023-03-05T02:56:01.340Z,960.75
2023-03-05T02:57:04.324Z,960.73
2023-03-05T02:58:01.363Z,960.70
2023-03-05T02:59:01.302Z,960.72
2023-03-05T03:00:01.549Z,960.67
2023-03-05T03:01:01.322Z,960.68
2023-03-05T03:02:01.277Z,960.71
2023-03-05T03:03:01.357Z,960.68
2023-03-05T03:04:01.298Z,960.65
2023-03-05T03:05:01.269Z,960.66
2023-03-05T03:06:01.265Z,960.60
2023-03-05T03:07:01.229Z,960.63
2023-03-05T03:08:01.221Z,960.60
2023-03-05T03:09:01.258Z,960.58
2023-03-05T03:10:01.232Z,960.59
2023-03-05T03:11:01.186Z,960.56
2023-03-05T03:12:04.199Z,960.54
2023-03-05T03:13:01.202Z,960.53
2023-03-05T03:14:01.178Z,960.53
2023-03-05T03:15:01.169Z,960.55
2023-03-05T03:16:01.167Z,960.56
2023-03-05T03:17:01.245Z,960.55
2023-03-05T03:18:01.116Z,960.56
2023-03-05T03:19:01.098Z,960.50
2023-03-05T03:20:01.141Z,960.52
2023-03-05T03:21:01.081Z,960.50
2023-03-05T03:22:01.075Z,960.54
2023-03-05T03:23:01.085Z,960.54
2023-03-05T03:24:01.094Z,960.52
2023-03-05T03:25:01.043Z,960.53
2023-03-05T03:26:01.083Z,960.56
2023-03-05T03:27:04.065Z,960.51
2023-03-05T03:28:01.059Z,960.54
2023-03-05T03:29:01.028Z,960.51
2023-03-05T03:30:01.004Z,960.45
2023-03-05T03:31:00.993Z,960.44
2023-03-05T03:32:01.004Z,960.39
2023-03-05T03:33:00.957Z,960.40
2023-03-05T03:34:01.005Z,960.38
2023-03-05T03:35:00.968Z,960.37
2023-03-05T03:36:01.013Z,960.39
2023-03-05T03:37:00.951Z,960.40
2023-03-05T03:38:00.940Z,960.38
2023-03-05T03:39:00.933Z,960.32
2023-03-05T03:40:00.920Z,960.36
2023-03-05T03:41:00.887Z,960.35
2023-03-05T03:42:03.924Z,960.33
2023-03-05T03:43:00.910Z,960.35
2023-03-05T03:44:00.846Z,960.31
2023-03-05T03:45:00.868Z,960.35
2023-03-05T03:46:00.884Z,960.27
2023-03-05T03:47:00.850Z,960.29
2023-03-05T03:48:00.844Z,960.31
2023-03-05T03:49:00.857Z,960.29
2023-03-05T03:50:00.788Z,960.29
2023-03-05T03:51:00.775Z,960.27
2023-03-05T03:52:00.897Z,960.25
2023-03-05T03:53:00.783Z,960.26
2023-03-05T03:54:00.827Z,960.19
2023-03-05T03:55:00.732Z,960.19
2023-03-05T03:56:00.737Z,960.17
2023-03-05T03:57:03.798Z,960.21
2023-03-05T03:58:00.752Z,960.18
2023-03-05T03:59:00.699Z,960.15
2023-03-05T04:00:00.715Z,960.18
2023-03-05T04:01:00.681Z,960.18
2023-03-05T04:02:00.723Z,960.21
2023-03-05T04:03:00.661Z,960.13
2023-03-05T04:04:00.763Z,960.16
2023-03-05T04:05:00.664Z,960.15
2023-03-05T04:06:00.644Z,960.15
2023-03-05T04:07:00.632Z,960.17
2023-03-05T04:08:00.624Z,960.18
2023-03-05T04:09:00.626Z,960.14
2023-03-05T04:10:00.581Z,960.15
2023-03-05T04:11:00.632Z,960.09
2023-03-05T04:12:03.562Z,960.07
2023-03-05T04:13:00.573Z,959.99
2023-03-05T04:14:00.588Z,960.02
2023-03-05T04:15:00.534Z,960.01
2023-03-05T04:16:00.570Z,959.98
2023-03-05T04:17:00.534Z,959.96
2023-03-05T04:18:00.501Z,959.98
2023-03-05T04:19:00.647Z,959.98
2023-03-05T04:20:00.482Z,960.01
2023-03-05T04:21:00.510Z,959.98
2023-03-05T04:22:01.428Z,959.97
2023-03-05T04:23:00.452Z,959.95
2023-03-05T04:24:00.440Z,959.94
2023-03-05T04:25:00.444Z,959.98
2023-03-05T04:26:00.466Z,959.98
2023-03-05T04:27:03.403Z,959.92
2023-03-05T04:28:00.451Z,959.98
2023-03-05T04:29:00.388Z,960.00
2023-03-05T04:30:00.366Z,959.97
2023-03-05T04:31:00.438Z,959.95
2023-03-05T04:32:00.456Z,959.97
2023-03-05T04:33:00.340Z,960.01
2023-03-05T04:34:00.355Z,959.98
2023-03-05T04:35:00.328Z,959.98
2023-03-05T04:36:00.312Z,959.99
2023-03-05T04:37:00.335Z,960.01
2023-03-05T04:38:00.306Z,960.01
2023-03-05T04:39:00.320Z,960.01
2023-03-05T04:40:00.272Z,959.99
2023-03-05T04:41:00.263Z,959.98
2023-03-05T04:42:03.255Z,959.97
2023-03-05T04:43:00.254Z,959.96
2023-03-05T04:44:00.235Z,959.92
2023-03-05T04:45:00.229Z,959.92
2023-03-05T04:46:00.230Z,959.93
2023-03-05T04:47:00.190Z,959.93
2023-03-05T04:48:00.182Z,959.95
2023-03-05T04:49:00.207Z,959.94
2023-03-05T04:50:00.397Z,959.90
2023-03-05T04:51:00.146Z,959.85
2023-03-05T04:52:00.160Z,959.90
2023-03-05T04:53:00.159Z,959.92
2023-03-05T04:54:00.144Z,959.93
2023-03-05T04:55:00.205Z,959.94
2023-03-05T04:56:00.134Z,959.95
2023-03-05T04:57:03.104Z,959.94
2023-03-05T04:58:00.110Z,959.95
2023-03-05T04:59:00.107Z,959.97
2023-03-05T05:00:00.066Z,959.95
2023-03-05T05:01:00.209Z,959.93
2023-03-05T05:02:00.180Z,959.90
2023-03-05T05:03:00.129Z,959.91
2023-03-05T05:04:00.057Z,959.87
2023-03-05T05:05:00.034Z,959.86
2023-03-05T05:06:00.001Z,959.87
2023-03-05T05:07:00.033Z,959.85
2023-03-05T05:07:59.985Z,959.86
2023-03-05T05:08:59.973Z,959.82
2023-03-05T05:09:59.963Z,959.82
2023-03-05T05:10:59.970Z,959.82
2023-03-05T05:12:02.963Z,959.83
2023-03-05T05:12:59.988Z,959.85
2023-03-05T05:13:59.955Z,959.85
2023-03-05T05:15:00.055Z,959.83
2023-03-05T05:15:59.988Z,959.81
2023-03-05T05:16:59.933Z,959.80
2023-03-05T05:17:59.900Z,959.81
2023-03-05T05:19:00.000Z,959.83
2023-03-05T05:19:59.857Z,959.80
2023-03-05T05:20:59.985Z,959.82
2023-03-05T05:21:59.845Z,959.79
2023-03-05T05:22:59.823Z,959.76
2023-03-05T05:23:59.846Z,959.79
2023-03-05T05:24:59.838Z,959.78
2023-03-05T05:25:59.817Z,959.82
2023-03-05T05:27:02.807Z,959.80
2023-03-05T05:27:59.796Z,959.78
2023-03-05T05:28:59.765Z,959.80
2023-03-05T05:29:59.776Z,959.73
2023-03-05T05:30:59.725Z,959.74
2023-03-05T05:31:59.730Z,959.72
2023-03-05T05:32:59.752Z,959.69
2023-03-05T05:33:59.746Z,959.70
2023-03-05T05:34:59.747Z,959.69
2023-03-05T05:35:59.709Z,959.69
2023-03-05T05:36:59.719Z,959.69
2023-03-05T05:38:00.608Z,959.65
2023-03-05T05:38:59.642Z,959.66
2023-03-05T05:39:59.629Z,959.67
2023-03-05T05:40:59.594Z,959.67
2023-03-05T05:42:02.620Z,959.66
2023-03-05T05:42:59.615Z,959.70
2023-03-05T05:43:59.592Z,959.73
2023-03-05T05:44:59.556Z,959.71
2023-03-05T05:45:59.648Z,959.72
2023-03-05T05:46:59.534Z,959.73
2023-03-05T05:47:59.555Z,959.69
2023-03-05T05:48:59.665Z,959.69
2023-03-05T05:49:59.507Z,959.64
2023-03-05T05:50:59.523Z,959.65
2023-03-05T05:51:59.487Z,959.61
2023-03-05T05:52:59.630Z,959.62
2023-03-05T05:53:59.485Z,959.65
2023-03-05T05:54:59.476Z,959.71
2023-03-05T05:55:59.482Z,959.69
2023-03-05T05:57:02.442Z,959.70
2023-03-05T05:57:59.463Z,959.74
2023-03-05T05:58:59.408Z,959.67
2023-03-05T05:59:59.433Z,959.69
2023-03-05T06:00:59.425Z,959.67
2023-03-05T06:01:59.470Z,959.64
2023-03-05T06:02:59.420Z,959.64
2023-03-05T06:03:59.355Z,959.62
2023-03-05T06:04:59.372Z,959.62
2023-03-05T06:05:59.342Z,959.61
2023-03-05T06:06:59.348Z,959.63
2023-03-05T06:07:59.356Z,959.60
2023-03-05T06:08:59.297Z,959.65
2023-03-05T06:09:59.318Z,959.62
2023-03-05T06:10:59.310Z,959.60
2023-03-05T06:12:02.300Z,959.60
2023-03-05T06:12:59.389Z,959.61
2023-03-05T06:13:59.285Z,959.61
2023-03-05T06:14:59.309Z,959.60
2023-03-05T06:15:59.242Z,959.57
2023-03-05T06:16:59.252Z,959.66
2023-03-05T06:17:59.232Z,959.64
2023-03-05T06:18:59.201Z,959.63
2023-03-05T06:19:59.196Z,959.63
2023-03-05T06:20:59.182Z,959.58
2023-03-05T06:21:59.235Z,959.64
2023-03-05T06:22:59.158Z,959.59
2023-03-05T06:23:59.178Z,959.62
2023-03-05T06:24:59.173Z,959.64
2023-03-05T06:25:59.150Z,959.54
2023-03-05T06:27:02.141Z,959.61
2023-03-05T06:27:59.127Z,959.59
2023-03-05T06:28:59.168Z,959.55
2023-03-05T06:29:59.110Z,959.60
2023-03-05T06:30:59.193Z,959.61
2023-03-05T06:31:59.114Z,959.61
2023-03-05T06:32:59.081Z,959.60
2023-03-05T06:33:59.075Z,959.58
2023-03-05T06:34:59.031Z,959.60
2023-03-05T06:35:59.101Z,959.64
2023-03-05T06:36:59.047Z,959.51
2023-03-05T06:37:59.003Z,959.53
2023-03-05T06:38:59.022Z,959.52
2023-03-05T06:39:58.982Z,959.54
2023-03-05T06:40:58.990Z,959.53
2023-03-05T06:42:01.980Z,959.54
2023-03-05T06:42:58.968Z,959.57
2023-03-05T06:43:58.936Z,959.56
2023-03-05T06:44:58.952Z,959.52
2023-03-05T06:45:58.959Z,959.55
2023-03-05T06:46:58.902Z,959.60
2023-03-05T06:47:58.921Z,959.57
2023-03-05T06:48:58.912Z,959.59
2023-03-05T06:49:58.907Z,959.54
2023-03-05T06:50:58.887Z,959.54
2023-03-05T06:51:58.852Z,959.52
2023-03-05T06:52:58.865Z,959.53
2023-03-05T06:53:58.893Z,959.52
2023-03-05T06:54:59.008Z,959.50
2023-03-05T06:55:58.810Z,959.48
2023-03-05T06:57:01.960Z,959.44
2023-03-05T06:57:58.810Z,959.44
2023-03-05T06:58:58.817Z,959.42
2023-03-05T06:59:58.805Z,959.42
2023-03-05T07:00:58.845Z,959.48
2023-03-05T07:01:58.782Z,959.50
2023-03-05T07:02:58.744Z,959.44
2023-03-05T07:03:58.775Z,959.46
2023-03-05T07:04:58.766Z,959.49
2023-03-05T07:05:58.709Z,959.51
2023-03-05T07:06:58.796Z,959.51
2023-03-05T07:07:58.723Z,959.50
2023-03-05T07:08:58.716Z,959.45
2023-03-05T07:09:58.667Z,959.45
2023-03-05T07:10:58.682Z,959.46
2023-03-05T07:12:01.667Z,959.47
2023-03-05T07:12:58.668Z,959.45
2023-03-05T07:13:58.628Z,959.46
2023-03-05T07:14:58.619Z,959.49
2023-03-05T07:15:58.633Z,959.45
2023-03-05T07:16:58.598Z,959.47
2023-03-05T07:17:58.589Z,959.47
2023-03-05T07:18:58.569Z,959.45
2023-03-05T07:19:58.599Z,959.46
2023-03-05T07:20:58.550Z,959.42
2023-03-05T07:21:58.573Z,959.47
2023-03-05T07:22:58.591Z,959.51
2023-03-05T07:23:58.544Z,959.52
2023-03-05T07:24:58.531Z,959.48
2023-03-05T07:25:58.539Z,959.47
2023-03-05T07:27:01.490Z,959.43
2023-03-05T07:27:58.550Z,959.44
2023-03-05T07:28:58.535Z,959.43
2023-03-05T07:29:58.460Z,959.43
2023-03-05T07:30:58.520Z,959.47
2023-03-05T07:31:58.482Z,959.41
2023-03-05T07:32:58.418Z,959.45
2023-03-05T07:33:58.443Z,959.42
2023-03-05T07:34:58.434Z,959.39
2023-03-05T07:35:58.454Z,959.40
2023-03-05T07:36:58.430Z,959.35
2023-03-05T07:37:58.398Z,959.36
2023-03-05T07:38:58.384Z,959.36
2023-03-05T07:39:58.517Z,959.34
2023-03-05T07:40:58.342Z,959.36
2023-03-05T07:42:01.459Z,959.39
2023-03-05T07:42:58.345Z,959.35
2023-03-05T07:43:58.312Z,959.37
2023-03-05T07:44:58.336Z,959.40
2023-03-05T07:45:58.319Z,959.32
2023-03-05T07:46:58.320Z,959.33
2023-03-05T07:47:58.278Z,959.35
2023-03-05T07:48:58.322Z,959.36
2023-03-05T07:49:58.272Z,959.32
2023-03-05T07:50:58.252Z,959.35
2023-03-05T07:51:58.240Z,959.29
2023-03-05T07:52:58.252Z,959.29
2023-03-05T07:53:58.242Z,959.30
2023-03-05T07:54:58.194Z,959.35
2023-03-05T07:55:58.231Z,959.30
2023-03-05T07:57:01.204Z,959.24
2023-03-05T07:57:58.207Z,959.28
2023-03-05T07:58:58.206Z,959.28
2023-03-05T07:59:58.180Z,959.25
2023-03-05T08:00:58.157Z,959.27
2023-03-05T08:01:58.136Z,959.26
2023-03-05T08:02:58.116Z,959.25
2023-03-05T08:03:58.190Z,959.25
2023-03-05T08:04:58.175Z,959.24
2023-03-05T08:05:58.122Z,959.23
2023-03-05T08:06:58.103Z,959.24
2023-03-05T08:07:58.056Z,959.24
2023-03-05T08:08:58.059Z,959.23
2023-03-05T08:09:58.077Z,959.22
2023-03-05T08:10:58.188Z,959.17
2023-03-05T08:12:01.025Z,959.21
2023-03-05T08:12:58.056Z,959.18
2023-03-05T08:13:58.023Z,959.21
2023-03-05T08:14:58.027Z,959.16
2023-03-05T08:15:58.019Z,959.23
2023-03-05T08:16:58.000Z,959.23
2023-03-05T08:17:57.968Z,959.20
2023-03-05T08:18:58.059Z,959.18
2023-03-05T08:19:57.948Z,959.15
2023-03-05T08:20:57.946Z,959.12
2023-03-05T08:21:57.953Z,959.12
2023-03-05T08:22:57.935Z,959.11
2023-03-05T08:23:57.925Z,959.09
2023-03-05T08:24:57.891Z,959.09
2023-03-05T08:25:57.938Z,959.09
2023-03-05T08:27:00.870Z,959.11
2023-03-05T08:27:57.880Z,959.11
2023-03-05T08:28:57.887Z,959.10
2023-03-05T08:29:57.861Z,959.11
2023-03-05T08:30:57.876Z,959.08
2023-03-05T08:31:57.925Z,959.09
2023-03-05T08:32:57.815Z,959.12
2023-03-05T08:33:57.853Z,959.12
2023-03-05T08:34:57.832Z,959.10
2023-03-05T08:35:58.808Z,959.12
2023-03-05T08:36:57.780Z,959.09
2023-03-05T08:37:57.794Z,959.13
2023-03-05T08:38:57.770Z,959.08
2023-03-05T08:39:57.742Z,959.05
2023-03-05T08:40:57.747Z,959.05
2023-03-05T08:42:00.729Z,959.05
2023-03-05T08:42:57.722Z,959.04
2023-03-05T08:43:57.700Z,959.01
2023-03-05T08:44:57.724Z,959.01
2023-03-05T08:45:57.707Z,959.04
2023-03-05T08:46:57.763Z,959.07
2023-03-05T08:47:57.689Z,959.05
2023-03-05T08:48:57.756Z,959.02
2023-03-05T08:49:57.703Z,959.08
2023-03-05T08:50:57.650Z,959.04
2023-03-05T08:51:57.622Z,959.06
2023-03-05T08:52:57.634Z,959.04
2023-03-05T08:53:57.624Z,959.04
2023-03-05T08:54:57.612Z,958.97
2023-03-05T08:55:57.592Z,958.99
2023-03-05T08:57:00.601Z,958.97
2023-03-05T08:57:57.578Z,958.92
2023-03-05T08:58:57.932Z,958.90
2023-03-05T08:59:57.561Z,958.91
2023-03-05T09:00:57.556Z,958.91
2023-03-05T09:01:57.580Z,958.94
2023-03-05T09:02:57.558Z,958.91
2023-03-05T09:03:57.495Z,958.86
2023-03-05T09:04:57.503Z,958.90
2023-03-05T09:05:57.505Z,958.89
2023-03-05T09:06:57.478Z,958.89
2023-03-05T09:07:57.454Z,958.87
2023-03-05T09:08:57.439Z,958.81
2023-03-05T09:09:57.504Z,958.84
2023-03-05T09:10:58.413Z,958.84
2023-03-05T09:12:00.423Z,958.84
2023-03-05T09:12:57.446Z,958.82
2023-03-05T09:13:57.417Z,958.85
2023-03-05T09:14:57.435Z,958.82
2023-03-05T09:15:57.448Z,958.85
2023-03-05T09:16:57.362Z,958.84
2023-03-05T09:17:57.347Z,958.84
2023-03-05T09:18:57.380Z,958.74
2023-03-05T09:19:57.332Z,958.76
2023-03-05T09:20:57.475Z,958.71
2023-03-05T09:21:57.342Z,958.69
2023-03-05T09:22:57.341Z,958.73
2023-03-05T09:23:57.318Z,958.68
2023-03-05T09:24:57.330Z,958.70
2023-03-05T09:25:57.277Z,958.66
2023-03-05T09:27:00.255Z,958.65
2023-03-05T09:27:57.287Z,958.70
2023-03-05T09:28:57.240Z,958.69
2023-03-05T09:29:57.235Z,958.70
2023-03-05T09:30:57.249Z,958.66
2023-03-05T09:31:57.294Z,958.66
2023-03-05T09:32:57.352Z,958.64
2023-03-05T09:33:57.215Z,958.66
2023-03-05T09:34:57.178Z,958.62
2023-03-05T09:35:57.222Z,958.65
2023-03-05T09:36:57.162Z,958.64
2023-03-05T09:37:57.179Z,958.62
2023-03-05T09:38:57.167Z,958.63
2023-03-05T09:39:57.120Z,958.63
2023-03-05T09:40:57.220Z,958.59
2023-03-05T09:42:00.153Z,958.59
2023-03-05T09:42:57.137Z,958.58
2023-03-05T09:43:57.115Z,958.57
2023-03-05T09:44:57.096Z,958.56
2023-03-05T09:45:57.097Z,958.56
2023-03-05T09:46:57.072Z,958.57
2023-03-05T09:47:57.110Z,958.59
2023-03-05T09:48:57.096Z,958.58
2023-03-05T09:49:57.022Z,958.53
2023-03-05T09:50:57.008Z,958.52
2023-03-05T09:51:56.999Z,958.55
2023-03-05T09:52:56.991Z,958.45
2023-03-05T09:53:57.007Z,958.49
2023-03-05T09:54:56.994Z,958.51
2023-03-05T09:55:57.937Z,958.47
2023-03-05T09:56:59.977Z,958.52
2023-03-05T09:57:57.051Z,958.50
2023-03-05T09:58:56.963Z,958.45
2023-03-05T09:59:56.943Z,958.46
2023-03-05T10:00:56.934Z,958.45
2023-03-05T10:01:56.927Z,958.42
2023-03-05T10:02:56.928Z,958.46
2023-03-05T10:03:56.946Z,958.34
2023-03-05T10:04:56.863Z,958.37
2023-03-05T10:05:56.866Z,958.35
2023-03-05T10:06:56.881Z,958.35
2023-03-05T10:07:56.846Z,958.34
2023-03-05T10:08:56.959Z,958.34
2023-03-05T10:09:57.179Z,958.31
2023-03-05T10:10:57.813Z,958.32
2023-03-05T10:11:59.860Z,958.30
2023-03-05T10:12:57.790Z,958.29
2023-03-05T10:13:56.849Z,958.22
2023-03-05T10:14:56.817Z,958.24
2023-03-05T10:15:56.776Z,958.22
2023-03-05T10:16:56.841Z,958.23
2023-03-05T10:17:56.735Z,958.24
2023-03-05T10:18:56.747Z,958.21
2023-03-05T10:19:56.732Z,958.20
2023-03-05T10:20:56.752Z,958.21
2023-03-05T10:21:56.722Z,958.16
2023-03-05T10:22:56.702Z,958.15
2023-03-05T10:23:56.667Z,958.16
2023-03-05T10:24:56.668Z,958.17
2023-03-05T10:25:56.669Z,958.20
2023-03-05T10:26:59.675Z,958.17
2023-03-05T10:27:57.630Z,958.15
2023-03-05T10:28:56.608Z,958.15
2023-03-05T10:29:56.609Z,958.14
2023-03-05T10:30:56.596Z,958.12
2023-03-05T10:31:56.669Z,958.11
2023-03-05T10:32:56.571Z,958.06
2023-03-05T10:33:56.593Z,958.04
2023-03-05T10:34:56.580Z,958.00
2023-03-05T10:35:56.594Z,958.05
2023-03-05T10:36:58.336Z,958.00
2023-03-05T10:37:56.519Z,958.00
2023-03-05T10:38:56.510Z,957.99
2023-03-05T10:39:56.515Z,958.00
2023-03-05T10:40:56.520Z,957.98
2023-03-05T10:41:59.515Z,957.99
2023-03-05T10:42:56.530Z,957.97
2023-03-05T10:43:56.452Z,957.98
2023-03-05T10:44:56.495Z,957.92
2023-03-05T10:45:56.525Z,957.88
2023-03-05T10:46:56.431Z,957.89
2023-03-05T10:47:56.451Z,957.90
2023-03-05T10:48:56.409Z,957.91
2023-03-05T10:49:56.417Z,957.88
2023-03-05T10:50:56.422Z,957.87
2023-03-05T10:51:56.407Z,957.83
2023-03-05T10:52:56.399Z,957.80
2023-03-05T10:53:58.199Z,957.84
2023-03-05T10:54:56.344Z,957.81
2023-03-05T10:55:57.285Z,957.78
2023-03-05T10:56:59.321Z,957.78
2023-03-05T10:57:57.291Z,957.79
2023-03-05T10:58:56.373Z,957.76
2023-03-05T10:59:56.322Z,957.70
2023-03-05T11:00:56.354Z,957.71
2023-03-05T11:01:56.275Z,957.67
2023-03-05T11:02:56.266Z,957.71
2023-03-05T11:03:56.275Z,957.67
2023-03-05T11:04:56.234Z,957.68
2023-03-05T11:05:56.257Z,957.70
2023-03-05T11:06:56.263Z,957.73
2023-03-05T11:07:56.243Z,957.66
2023-03-05T11:08:57.149Z,957.65
2023-03-05T11:09:57.154Z,957.67
2023-03-05T11:10:56.207Z,957.61
2023-03-05T11:11:59.193Z,957.60
2023-03-05T11:12:56.202Z,957.58
2023-03-05T11:13:56.148Z,957.61
2023-03-05T11:14:56.187Z,957.55
2023-03-05T11:15:57.131Z,957.56
2023-03-05T11:16:56.132Z,957.54
2023-03-05T11:17:56.126Z,957.52
2023-03-05T11:18:56.226Z,957.58
2023-03-05T11:19:56.114Z,957.56
2023-03-05T11:20:56.103Z,957.56
2023-03-05T11:21:56.053Z,957.56
2023-03-05T11:22:56.077Z,957.51
2023-03-05T11:23:56.069Z,957.54
2023-03-05T11:24:56.057Z,957.57
2023-03-05T11:25:56.068Z,957.50
2023-03-05T11:26:59.398Z,957.50
2023-03-05T11:27:56.101Z,957.47
2023-03-05T11:28:56.437Z,957.47
2023-03-05T11:29:56.006Z,957.47
2023-03-05T11:30:56.033Z,957.43
2023-03-05T11:31:56.931Z,957.43
2023-03-05T11:32:57.107Z,957.42
2023-03-05T11:33:56.089Z,957.36
2023-03-05T11:34:56.225Z,957.33
2023-03-05T11:35:56.913Z,957.37
2023-03-05T11:36:57.105Z,957.33
2023-03-05T11:37:55.924Z,957.30
2023-03-05T11:38:55.891Z,957.33
2023-03-05T11:39:56.018Z,957.32
2023-03-05T11:40:56.862Z,957.29
2023-03-05T11:41:58.852Z,957.27
2023-03-05T11:42:55.887Z,957.30
2023-03-05T11:43:55.833Z,957.27
2023-03-05T11:44:55.845Z,957.29
2023-03-05T11:45:56.831Z,957.29
2023-03-05T11:46:55.837Z,957.26
2023-03-05T11:47:55.834Z,957.22
2023-03-05T11:48:55.788Z,957.18
2023-03-05T11:49:55.800Z,957.18
2023-03-05T11:50:55.775Z,957.15
2023-03-05T11:51:55.756Z,957.15
2023-03-05T11:52:55.768Z,957.11
2023-03-05T11:53:55.769Z,957.11
2023-03-05T11:54:55.767Z,957.10
2023-03-05T11:55:56.716Z,957.06
2023-03-05T11:56:58.725Z,957.10
2023-03-05T11:57:56.680Z,957.06
2023-03-05T11:58:55.712Z,957.09
2023-03-05T11:59:55.692Z,957.07
2023-03-05T12:00:56.647Z,957.00
2023-03-05T12:01:55.682Z,957.01
2023-03-05T12:02:55.784Z,956.97
2023-03-05T12:03:55.858Z,956.97
2023-03-05T12:04:55.632Z,956.97
2023-03-05T12:05:55.633Z,956.94
2023-03-05T12:06:55.753Z,956.97
2023-03-05T12:07:55.622Z,956.93
2023-03-05T12:08:55.572Z,956.89
2023-03-05T12:09:55.584Z,956.88
2023-03-05T12:10:55.567Z,956.92
2023-03-05T12:11:58.830Z,956.88
2023-03-05T12:12:55.584Z,956.85
2023-03-05T12:13:56.474Z,956.88
2023-03-05T12:14:55.552Z,956.86
2023-03-05T12:15:56.525Z,956.87
2023-03-05T12:16:55.513Z,956.83
2023-03-05T12:17:55.509Z,956.87
2023-03-05T12:18:55.471Z,956.85
2023-03-05T12:19:55.484Z,956.80
2023-03-05T12:20:56.472Z,956.81
2023-03-05T12:21:55.847Z,956.76
2023-03-05T12:22:56.518Z,956.74
2023-03-05T12:23:56.723Z,956.75
2023-03-05T12:24:56.438Z,956.69
2023-03-05T12:25:55.551Z,956.67
2023-03-05T12:26:58.495Z,956.64
2023-03-05T12:27:55.416Z,956.67